Modoc, South Carolina
Current Conditions -  °F | °C
As of 5:53 PM on Friday 31 Oct 2014 (Local Time) from KDNL Reporting Station
Broken Clouds Broken Clouds  
Wind Chill: 67°   Ceiling: 12000
Heat Index: 67°   Visibility: 10mi
Dew Point: 41°   Wind: 8mph
Humidity: 39%   Direction: 290°WNW
Pressure: 29.8"   Gusts: NA
Location:  33.73°N, 82.21°W
Report Text: KDNL 312153Z AUTO 29007KT 10SM SCT085 BKN120 19/05 A2980 RMK AO2 SLP087 T01940050
Loading
Personal Weather Stations






























Interactive Weather Map
Tropical Storm Tracking
New forecast layout! Learn more

10-Day Weather Forecast

Advertisements
Track Severe Weather on mobile